createdAt,value
2022-12-03T00:01:25.028Z,34.50
2022-12-03T00:03:53.638Z,29.63
2022-12-03T00:06:25.693Z,35.03
2022-12-03T00:08:55.421Z,33.70
2022-12-03T00:11:23.804Z,36.03
2022-12-03T00:13:52.261Z,32.10
2022-12-03T00:16:20.751Z,35.80
2022-12-03T00:18:49.587Z,38.10
2022-12-03T00:21:19.863Z,34.10
2022-12-03T00:23:49.670Z,36.23
2022-12-03T00:26:24.020Z,34.50
2022-12-03T00:28:52.371Z,35.43
2022-12-03T00:31:23.541Z,33.90
2022-12-03T00:33:52.081Z,31.67
2022-12-03T00:36:21.877Z,35.30
2022-12-03T00:38:51.698Z,33.30
2022-12-03T00:41:24.003Z,30.90
2022-12-03T00:43:58.001Z,36.90
2022-12-03T00:46:26.444Z,31.70
2022-12-03T00:48:55.238Z,34.90
2022-12-03T00:51:26.426Z,31.83
2022-12-03T00:53:56.446Z,32.60
2022-12-03T00:56:25.059Z,33.47
2022-12-03T00:58:56.742Z,32.23
2022-12-03T01:01:25.090Z,29.80
2022-12-03T01:03:53.805Z,34.63
2022-12-03T01:06:22.494Z,30.40
2022-12-03T01:08:50.897Z,29.73
2022-12-03T01:11:39.098Z,28.93
2022-12-03T01:14:07.672Z,32.90
2022-12-03T01:16:36.122Z,34.00
2022-12-03T01:19:04.674Z,32.77
2022-12-03T01:21:33.019Z,30.97
2022-12-03T01:24:01.619Z,35.33
2022-12-03T01:26:31.383Z,32.77
2022-12-03T01:29:00.046Z,33.50
2022-12-03T01:31:46.409Z,32.70
2022-12-03T01:34:14.889Z,31.17
2022-12-03T01:36:43.177Z,31.47
2022-12-03T01:39:11.528Z,34.13
2022-12-03T01:41:41.415Z,31.67
2022-12-03T01:44:14.555Z,31.33
2022-12-03T01:46:42.905Z,31.10
2022-12-03T01:49:11.544Z,31.70
2022-12-03T01:51:39.898Z,30.43
2022-12-03T01:54:08.175Z,31.77
2022-12-03T01:56:36.431Z,33.63
2022-12-03T01:59:06.246Z,30.30
2022-12-03T02:01:34.805Z,31.80
2022-12-03T02:04:03.301Z,32.40
2022-12-03T02:06:33.637Z,34.50
2022-12-03T02:09:02.739Z,31.23
2022-12-03T02:11:32.088Z,33.17
2022-12-03T02:14:01.414Z,32.07
2022-12-03T02:16:31.552Z,30.60
2022-12-03T02:19:00.201Z,30.23
2022-12-03T02:21:29.605Z,32.33
2022-12-03T02:23:59.389Z,37.57
2022-12-03T02:26:29.903Z,30.90
2022-12-03T02:28:58.387Z,35.93
2022-12-03T02:31:26.815Z,33.97
2022-12-03T02:33:55.289Z,31.80
2022-12-03T02:36:23.566Z,32.53
2022-12-03T02:38:53.119Z,33.90
2022-12-03T02:41:35.277Z,30.30
2022-12-03T02:44:05.058Z,32.90
2022-12-03T02:46:33.450Z,31.97
2022-12-03T02:49:02.020Z,31.97
2022-12-03T02:51:30.604Z,32.43
2022-12-03T02:53:58.939Z,32.97
2022-12-03T02:56:28.488Z,33.27
2022-12-03T02:59:04.162Z,31.27
2022-12-03T03:01:34.975Z,34.10
2022-12-03T03:04:04.599Z,31.20
2022-12-03T03:06:33.000Z,30.63
2022-12-03T03:09:01.527Z,34.17
2022-12-03T03:11:29.918Z,34.00
2022-12-03T03:13:59.582Z,31.97
2022-12-03T03:16:28.097Z,31.90
2022-12-03T03:18:57.947Z,34.33
2022-12-03T03:21:26.307Z,32.30
2022-12-03T03:23:54.664Z,34.00
2022-12-03T03:26:23.180Z,33.73
2022-12-03T03:28:52.032Z,30.83
2022-12-03T03:31:21.025Z,31.20
2022-12-03T03:33:49.404Z,33.43
2022-12-03T03:36:19.165Z,32.90
2022-12-03T03:38:47.646Z,35.37
2022-12-03T03:41:18.240Z,35.63
2022-12-03T03:43:46.597Z,32.70
2022-12-03T03:46:15.098Z,32.30
2022-12-03T03:48:43.569Z,35.30
2022-12-03T03:51:11.970Z,34.50
2022-12-03T03:53:42.225Z,35.17
2022-12-03T03:56:10.651Z,32.57
2022-12-03T03:58:39.031Z,33.83
2022-12-03T04:01:07.483Z,32.23
2022-12-03T04:03:35.971Z,32.40
2022-12-03T04:06:04.505Z,32.13
2022-12-03T04:08:32.842Z,35.57
2022-12-03T04:11:25.648Z,32.17
2022-12-03T04:13:53.991Z,34.00
2022-12-03T04:16:22.372Z,35.50
2022-12-03T04:18:51.190Z,33.83
2022-12-03T04:21:37.370Z,32.77
2022-12-03T04:24:06.071Z,34.80
2022-12-03T04:26:53.497Z,28.90
2022-12-03T04:29:21.962Z,31.73
2022-12-03T04:32:08.119Z,29.37
2022-12-03T04:34:54.427Z,36.43
2022-12-03T04:37:23.181Z,35.47
2022-12-03T04:39:51.597Z,31.37
2022-12-03T04:42:21.436Z,35.10
2022-12-03T04:44:49.838Z,33.07
2022-12-03T04:47:18.744Z,34.93
2022-12-03T04:49:47.457Z,31.47
2022-12-03T04:52:16.247Z,32.47
2022-12-03T04:54:44.615Z,34.37
2022-12-03T04:57:13.071Z,35.73
2022-12-03T04:59:42.801Z,30.70
2022-12-03T05:02:11.470Z,34.10
2022-12-03T05:04:42.399Z,33.70
2022-12-03T05:07:14.421Z,38.17
2022-12-03T05:09:42.834Z,33.93
2022-12-03T05:12:11.361Z,34.70
2022-12-03T05:14:39.756Z,38.17
2022-12-03T05:17:09.537Z,36.10
2022-12-03T05:19:55.723Z,33.77
2022-12-03T05:22:24.240Z,32.63
2022-12-03T05:24:54.839Z,35.63
2022-12-03T05:27:24.333Z,32.67
2022-12-03T05:29:54.047Z,34.23
2022-12-03T05:32:24.393Z,33.57
2022-12-03T05:34:53.740Z,33.93
2022-12-03T05:37:22.330Z,33.50
2022-12-03T05:39:50.851Z,34.43
2022-12-03T05:42:36.677Z,32.77
2022-12-03T05:45:05.271Z,34.30
2022-12-03T05:47:35.245Z,33.83
2022-12-03T05:50:03.611Z,34.80
2022-12-03T05:52:32.041Z,33.40
2022-12-03T05:55:00.593Z,33.27
2022-12-03T05:57:29.056Z,33.40
2022-12-03T05:59:57.484Z,35.40
2022-12-03T06:02:25.987Z,34.43
2022-12-03T06:04:56.057Z,38.00
2022-12-03T06:07:24.730Z,31.73
2022-12-03T06:09:53.101Z,36.13
2022-12-03T06:12:21.662Z,35.27
2022-12-03T06:14:50.106Z,33.13
2022-12-03T06:17:18.508Z,36.33
2022-12-03T06:19:47.360Z,36.27
2022-12-03T06:22:17.272Z,35.50
2022-12-03T06:24:45.670Z,34.60
2022-12-03T06:27:14.111Z,36.87
2022-12-03T06:29:42.765Z,35.87
2022-12-03T06:32:11.230Z,32.97
2022-12-03T06:34:42.295Z,36.23
2022-12-03T06:37:10.788Z,34.93
2022-12-03T06:39:40.583Z,36.30
2022-12-03T06:42:09.126Z,33.83
2022-12-03T06:44:37.500Z,32.23
2022-12-03T06:47:06.146Z,35.03
2022-12-03T06:49:34.860Z,33.20
2022-12-03T06:52:03.190Z,33.67
2022-12-03T06:54:31.699Z,35.60
2022-12-03T06:57:01.355Z,36.10
2022-12-03T06:59:30.139Z,36.07
2022-12-03T07:01:58.603Z,35.27
2022-12-03T07:04:27.006Z,35.17
2022-12-03T07:06:55.433Z,34.97
2022-12-03T07:09:23.783Z,32.97
2022-12-03T07:11:52.130Z,35.17
2022-12-03T07:14:21.991Z,37.83
2022-12-03T07:16:52.449Z,35.30
2022-12-03T07:19:21.079Z,36.40
2022-12-03T07:21:51.980Z,32.37
2022-12-03T07:24:20.524Z,33.83
2022-12-03T07:26:48.793Z,38.70
2022-12-03T07:29:17.313Z,34.00
2022-12-03T07:31:47.172Z,37.93
2022-12-03T07:34:15.774Z,36.30
2022-12-03T07:36:44.121Z,35.73
2022-12-03T07:39:12.503Z,38.80
2022-12-03T07:41:40.925Z,39.07
2022-12-03T07:44:14.180Z,40.17
2022-12-03T07:46:43.330Z,38.57
2022-12-03T07:49:13.372Z,36.13
2022-12-03T07:51:43.212Z,37.37
2022-12-03T07:54:11.542Z,36.57
2022-12-03T07:56:39.901Z,38.40
2022-12-03T07:59:08.546Z,37.50
2022-12-03T08:01:37.068Z,39.77
2022-12-03T08:04:05.615Z,41.53
2022-12-03T08:06:35.560Z,45.53
2022-12-03T08:09:04.152Z,44.57
2022-12-03T08:11:32.711Z,40.47
2022-12-03T08:14:01.120Z,40.97
2022-12-03T08:16:32.302Z,42.63
2022-12-03T08:19:00.995Z,41.23
2022-12-03T08:21:29.455Z,42.27
2022-12-03T08:23:59.287Z,37.20
2022-12-03T08:26:28.172Z,42.83
2022-12-03T08:28:56.740Z,41.93
2022-12-03T08:31:32.728Z,46.47
2022-12-03T08:34:08.723Z,44.07
2022-12-03T08:36:37.623Z,43.00
2022-12-03T08:39:15.355Z,41.33
2022-12-03T08:42:01.302Z,42.73
2022-12-03T08:44:30.361Z,46.20
2022-12-03T08:47:04.821Z,41.60
2022-12-03T08:49:34.656Z,43.13
2022-12-03T08:52:12.592Z,39.03
2022-12-03T08:54:42.811Z,39.27
2022-12-03T08:57:32.369Z,43.23
2022-12-03T09:00:01.255Z,40.87
2022-12-03T09:02:31.019Z,40.93
2022-12-03T09:04:59.423Z,44.87
2022-12-03T09:07:30.308Z,40.60
2022-12-03T09:10:00.206Z,38.53
2022-12-03T09:12:30.112Z,44.33
2022-12-03T09:14:58.780Z,40.87
2022-12-03T09:17:27.598Z,36.63
2022-12-03T09:19:57.688Z,39.57
2022-12-03T09:22:26.387Z,39.17
2022-12-03T09:24:55.069Z,38.40
2022-12-03T09:27:26.365Z,36.57
2022-12-03T09:29:58.128Z,36.37
2022-12-03T09:32:29.937Z,34.43
2022-12-03T09:34:58.920Z,38.10
2022-12-03T09:37:30.712Z,38.90
2022-12-03T09:39:59.417Z,35.30
2022-12-03T09:42:30.490Z,35.87
2022-12-03T09:45:01.334Z,35.43
2022-12-03T09:47:50.630Z,40.17
2022-12-03T09:50:21.570Z,37.60
2022-12-03T09:52:51.328Z,37.37
2022-12-03T09:55:20.514Z,37.50
2022-12-03T09:57:50.610Z,32.60
2022-12-03T10:00:19.975Z,32.93
2022-12-03T10:02:48.985Z,33.93
2022-12-03T10:05:17.965Z,32.90
2022-12-03T10:07:49.045Z,35.70
2022-12-03T10:10:17.914Z,37.47
2022-12-03T10:12:46.352Z,33.53
2022-12-03T10:15:16.848Z,38.57
2022-12-03T10:17:45.359Z,39.20
2022-12-03T10:20:16.335Z,40.90
2022-12-03T10:22:45.218Z,37.20
2022-12-03T10:25:17.658Z,39.93
2022-12-03T10:27:58.466Z,40.37
2022-12-03T10:30:50.440Z,42.43
2022-12-03T10:33:23.625Z,40.57
2022-12-03T10:35:59.214Z,45.77
2022-12-03T10:38:27.908Z,43.97
2022-12-03T10:41:08.603Z,43.80
2022-12-03T10:43:39.777Z,41.73
2022-12-03T10:46:22.172Z,40.57
2022-12-03T10:49:20.703Z,47.50
2022-12-03T10:51:49.303Z,44.17
2022-12-03T10:54:26.046Z,47.30
2022-12-03T10:56:56.994Z,49.13
2022-12-03T10:59:26.483Z,46.60
2022-12-03T11:01:59.595Z,50.57
2022-12-03T11:04:30.796Z,50.97
2022-12-03T11:07:06.453Z,42.70
2022-12-03T11:09:35.250Z,48.97
2022-12-03T11:12:05.820Z,49.37
2022-12-03T11:14:53.149Z,45.33
2022-12-03T11:17:37.608Z,45.63
2022-12-03T11:20:09.935Z,43.90
2022-12-03T11:22:44.916Z,44.13
2022-12-03T11:25:32.457Z,45.43
2022-12-03T11:28:31.072Z,43.90
2022-12-03T11:31:01.411Z,46.63
2022-12-03T11:33:33.225Z,41.87
2022-12-03T11:36:12.943Z,45.07
2022-12-03T11:38:52.376Z,46.63
2022-12-03T11:41:22.124Z,46.53
2022-12-03T11:44:09.175Z,42.23
2022-12-03T11:46:44.320Z,49.60
2022-12-03T11:49:22.671Z,48.83
2022-12-03T11:51:52.692Z,52.50
2022-12-03T11:54:21.099Z,42.53
2022-12-03T11:56:52.916Z,47.53
2022-12-03T11:59:27.747Z,49.67
2022-12-03T12:01:56.187Z,50.27
2022-12-03T12:04:34.943Z,47.17
2022-12-03T12:07:06.633Z,50.63
2022-12-03T12:09:52.065Z,49.53
2022-12-03T12:12:29.285Z,49.37
2022-12-03T12:14:58.168Z,48.47
2022-12-03T12:17:31.788Z,47.27
2022-12-03T12:20:22.956Z,53.37
2022-12-03T12:22:53.046Z,51.73
2022-12-03T12:25:37.566Z,48.00
2022-12-03T12:28:06.243Z,45.67
2022-12-03T12:30:35.449Z,47.30
2022-12-03T12:33:15.816Z,42.83
2022-12-03T12:35:44.341Z,44.47
2022-12-03T12:38:19.732Z,42.40
2022-12-03T12:40:49.541Z,41.13
2022-12-03T12:43:23.726Z,39.60
2022-12-03T12:45:53.436Z,43.93
2022-12-03T12:48:26.105Z,50.37
2022-12-03T12:50:59.767Z,46.53
2022-12-03T12:53:35.820Z,45.80
2022-12-03T12:56:09.885Z,44.00
2022-12-03T12:58:39.540Z,46.10
2022-12-03T13:01:11.665Z,46.43
2022-12-03T13:03:43.497Z,42.40
2022-12-03T13:06:12.785Z,42.43
2022-12-03T13:08:59.809Z,45.00
2022-12-03T13:11:37.092Z,47.83
2022-12-03T13:14:07.631Z,47.27
2022-12-03T13:16:41.973Z,49.90
2022-12-03T13:19:22.709Z,49.80
2022-12-03T13:21:51.445Z,51.53
2022-12-03T13:24:28.878Z,54.70
2022-12-03T13:26:57.382Z,44.83
2022-12-03T13:29:25.716Z,49.33
2022-12-03T13:31:54.720Z,53.80
2022-12-03T13:34:24.316Z,47.60
2022-12-03T13:36:58.078Z,49.17
2022-12-03T13:39:43.745Z,45.60
2022-12-03T13:42:32.495Z,48.97
2022-12-03T13:45:04.572Z,52.07
2022-12-03T13:47:35.005Z,47.70
2022-12-03T13:50:04.361Z,48.70
2022-12-03T13:52:33.153Z,50.50
2022-12-03T13:55:04.627Z,49.87
2022-12-03T13:57:48.680Z,47.47
2022-12-03T14:00:17.425Z,47.47
2022-12-03T14:03:05.747Z,51.63
2022-12-03T14:05:36.539Z,49.07
2022-12-03T14:08:06.277Z,43.57
2022-12-03T14:10:36.556Z,42.03
2022-12-03T14:13:05.231Z,41.63
2022-12-03T14:15:35.410Z,43.53
2022-12-03T14:18:03.868Z,44.50
2022-12-03T14:20:32.244Z,40.27
2022-12-03T14:23:03.596Z,42.67
2022-12-03T14:25:34.172Z,42.53
2022-12-03T14:28:11.800Z,42.33
2022-12-03T14:30:40.229Z,43.67
2022-12-03T14:33:08.889Z,39.17
2022-12-03T14:35:37.473Z,39.43
2022-12-03T14:38:05.977Z,39.03
2022-12-03T14:40:35.010Z,33.43
2022-12-03T14:43:17.901Z,36.60
2022-12-03T14:45:49.364Z,36.53
2022-12-03T14:48:18.000Z,46.00
2022-12-03T14:50:48.502Z,43.70
2022-12-03T14:53:17.123Z,44.30
2022-12-03T14:55:48.085Z,48.17
2022-12-03T14:58:17.992Z,44.97
2022-12-03T15:00:56.146Z,40.23
2022-12-03T15:03:27.265Z,39.53
2022-12-03T15:05:55.822Z,40.97
2022-12-03T15:08:24.321Z,44.10
2022-12-03T15:10:53.004Z,41.77
2022-12-03T15:13:23.192Z,41.13
2022-12-03T15:18:31.949Z,50.87
2022-12-03T15:21:00.864Z,45.73
2022-12-03T15:23:29.325Z,44.93
2022-12-03T15:25:58.550Z,46.33
2022-12-03T15:28:28.321Z,57.33
2022-12-03T15:31:23.025Z,49.50
2022-12-03T15:33:59.237Z,51.30
2022-12-03T15:36:33.012Z,52.80
2022-12-03T15:39:01.444Z,59.00
2022-12-03T15:41:30.236Z,53.27
2022-12-03T15:44:01.798Z,116.23
2022-12-03T15:46:31.470Z,57.37
2022-12-03T15:49:00.956Z,56.63
2022-12-03T15:51:29.302Z,55.80
2022-12-03T15:53:57.785Z,55.50
2022-12-03T15:56:26.356Z,53.67
2022-12-03T15:58:54.710Z,56.73
2022-12-03T16:01:24.793Z,56.13
2022-12-03T16:03:53.188Z,54.00
2022-12-03T16:06:21.625Z,55.37
2022-12-03T16:08:50.245Z,59.87
2022-12-03T16:11:18.570Z,54.07
2022-12-03T16:13:47.152Z,49.03
2022-12-03T16:16:15.542Z,61.37
2022-12-03T16:18:45.720Z,51.63
2022-12-03T16:21:14.348Z,52.67
2022-12-03T16:23:42.834Z,53.47
2022-12-03T16:26:11.188Z,51.83
2022-12-03T16:28:39.540Z,50.77
2022-12-03T16:31:07.986Z,53.27
2022-12-03T16:33:36.564Z,53.63
2022-12-03T16:36:06.891Z,47.20
2022-12-03T16:38:35.216Z,52.03
2022-12-03T16:41:03.530Z,53.87
2022-12-03T16:43:34.158Z,52.00
2022-12-03T16:46:20.781Z,54.60
2022-12-03T16:48:49.388Z,55.33
2022-12-03T16:51:20.222Z,50.40
2022-12-03T16:53:48.664Z,57.10
2022-12-03T16:56:17.081Z,52.93
2022-12-03T16:58:45.574Z,53.73
2022-12-03T17:01:14.079Z,53.47
2022-12-03T17:03:45.375Z,49.73
2022-12-03T17:06:13.914Z,55.53
2022-12-03T17:08:48.974Z,65.73
2022-12-03T17:11:21.122Z,53.83
2022-12-03T17:13:49.538Z,48.77
2022-12-03T17:16:18.146Z,47.37
2022-12-03T17:18:46.680Z,53.40
2022-12-03T17:21:15.392Z,51.47
2022-12-03T17:23:48.803Z,43.40
2022-12-03T17:26:17.114Z,47.83
2022-12-03T17:28:45.561Z,44.57
2022-12-03T17:31:14.028Z,46.53
2022-12-03T17:33:42.532Z,43.53
2022-12-03T17:36:11.178Z,41.60
2022-12-03T17:38:39.659Z,42.37
2022-12-03T17:41:09.327Z,44.20
2022-12-03T17:43:38.815Z,39.57
2022-12-03T17:46:07.519Z,44.57
2022-12-03T17:48:36.365Z,41.47
2022-12-03T17:51:04.709Z,42.23
2022-12-03T17:53:35.955Z,38.53
2022-12-03T17:56:04.239Z,42.87
2022-12-03T17:58:33.969Z,40.67
2022-12-03T18:01:03.285Z,40.53
2022-12-03T18:03:32.398Z,40.27
2022-12-03T18:06:00.851Z,42.50
2022-12-03T18:08:29.332Z,45.37
2022-12-03T18:10:57.913Z,39.47
2022-12-03T18:13:26.359Z,47.27
2022-12-03T18:15:56.427Z,44.67
2022-12-03T18:18:24.884Z,46.00
2022-12-03T18:20:53.640Z,52.20
2022-12-03T18:23:22.179Z,45.80
2022-12-03T18:25:50.889Z,49.57
2022-12-03T18:28:19.573Z,48.73
2022-12-03T18:30:52.495Z,54.70
2022-12-03T18:33:23.591Z,56.40
2022-12-03T18:35:53.864Z,47.10
2022-12-03T18:38:22.207Z,46.57
2022-12-03T18:40:50.563Z,58.07
2022-12-03T18:43:18.853Z,53.40
2022-12-03T18:45:47.180Z,57.10
2022-12-03T18:48:15.899Z,50.73
2022-12-03T18:50:45.727Z,53.90
2022-12-03T18:53:14.066Z,53.57
2022-12-03T18:55:42.813Z,53.63
2022-12-03T18:58:11.523Z,57.83
2022-12-03T19:00:39.938Z,56.30
2022-12-03T19:03:09.569Z,50.47
2022-12-03T19:05:38.138Z,54.43
2022-12-03T19:08:14.467Z,57.57
2022-12-03T19:10:43.286Z,58.17
2022-12-03T19:13:11.694Z,55.87
2022-12-03T19:15:40.259Z,54.30
2022-12-03T19:18:08.763Z,52.77
2022-12-03T19:20:37.170Z,52.67
2022-12-03T19:23:05.655Z,58.47
2022-12-03T19:25:35.524Z,60.83
2022-12-03T19:28:03.902Z,55.13
2022-12-03T19:30:32.259Z,52.90
2022-12-03T19:33:00.683Z,61.30
2022-12-03T19:35:29.028Z,48.87
2022-12-03T19:37:58.437Z,57.07
2022-12-03T19:40:27.016Z,56.07
2022-12-03T19:42:56.725Z,57.57
2022-12-03T19:45:25.276Z,56.77
2022-12-03T19:47:53.616Z,52.03
2022-12-03T19:50:23.527Z,58.33
2022-12-03T19:52:52.286Z,56.43
2022-12-03T19:55:20.849Z,63.53
2022-12-03T19:57:49.188Z,60.80
2022-12-03T20:00:19.330Z,55.93
2022-12-03T20:02:49.909Z,54.60
2022-12-03T20:05:18.286Z,57.50
2022-12-03T20:07:46.796Z,64.60
2022-12-03T20:10:15.200Z,62.17
2022-12-03T20:12:43.590Z,56.87
2022-12-03T20:15:12.785Z,60.53
2022-12-03T20:17:42.543Z,62.17
2022-12-03T20:20:11.478Z,59.87
2022-12-03T20:22:39.854Z,61.60
2022-12-03T20:25:08.748Z,60.47
2022-12-03T20:27:37.173Z,58.67
2022-12-03T20:30:05.818Z,53.67
2022-12-03T20:32:34.284Z,59.37
2022-12-03T20:35:04.575Z,59.43
2022-12-03T20:37:32.916Z,62.17
2022-12-03T20:40:01.282Z,63.47
2022-12-03T20:42:29.773Z,66.67
2022-12-03T20:44:58.111Z,60.70
2022-12-03T20:47:26.512Z,56.83
2022-12-03T20:49:55.446Z,59.80
2022-12-03T20:52:25.383Z,57.97
2022-12-03T20:54:53.684Z,60.67
2022-12-03T20:57:22.016Z,54.20
2022-12-03T20:59:50.538Z,61.83
2022-12-03T21:02:19.180Z,62.30
2022-12-03T21:04:47.733Z,55.47
2022-12-03T21:07:16.276Z,62.77
2022-12-03T21:09:45.882Z,67.67
2022-12-03T21:12:14.185Z,56.40
2022-12-03T21:14:42.577Z,60.37
2022-12-03T21:17:11.187Z,63.20
2022-12-03T21:19:39.551Z,64.27
2022-12-03T21:22:10.303Z,60.73
2022-12-03T21:24:38.954Z,54.90
2022-12-03T21:27:08.806Z,64.87
2022-12-03T21:29:37.293Z,61.40
2022-12-03T21:32:05.780Z,58.33
2022-12-03T21:34:36.372Z,52.93
2022-12-03T21:37:05.272Z,56.90
2022-12-03T21:39:33.704Z,61.90
2022-12-03T21:42:18.921Z,55.23
2022-12-03T21:44:52.014Z,52.33
2022-12-03T21:47:20.498Z,69.47
2022-12-03T21:49:48.914Z,64.17
2022-12-03T21:52:19.025Z,60.73
2022-12-03T21:54:47.508Z,64.30
2022-12-03T21:57:15.937Z,55.17
2022-12-03T21:59:44.550Z,56.37
2022-12-03T22:02:14.390Z,56.17
2022-12-03T22:04:43.024Z,58.50
2022-12-03T22:07:11.595Z,54.57
2022-12-03T22:09:39.989Z,52.90
2022-12-03T22:12:08.609Z,57.03
2022-12-03T22:14:37.439Z,59.37
2022-12-03T22:17:06.012Z,55.90
2022-12-03T22:19:35.786Z,49.23
2022-12-03T22:22:04.124Z,53.43
2022-12-03T22:24:32.582Z,55.23
2022-12-03T22:27:01.151Z,51.73
2022-12-03T22:29:29.609Z,55.73
2022-12-03T22:31:58.059Z,52.07
2022-12-03T22:34:26.719Z,54.67
2022-12-03T22:36:56.711Z,54.37
2022-12-03T22:39:26.382Z,58.57
2022-12-03T22:41:54.721Z,52.20
2022-12-03T22:44:23.160Z,48.83
2022-12-03T22:46:51.953Z,51.13
2022-12-03T22:49:20.641Z,54.07
2022-12-03T22:51:49.055Z,50.07
2022-12-03T22:54:23.742Z,50.57
2022-12-03T22:56:52.551Z,52.83
2022-12-03T22:59:21.158Z,49.83
2022-12-03T23:01:49.549Z,51.73
2022-12-03T23:04:18.097Z,56.07
2022-12-03T23:06:46.760Z,49.40
2022-12-03T23:09:15.171Z,52.97
2022-12-03T23:11:46.266Z,53.40
2022-12-03T23:14:14.588Z,52.13
2022-12-03T23:16:43.012Z,54.13
2022-12-03T23:19:11.735Z,56.70
2022-12-03T23:21:40.333Z,55.23
2022-12-03T23:24:08.813Z,50.70
2022-12-03T23:26:37.550Z,56.43
2022-12-03T23:29:08.668Z,54.30
2022-12-03T23:31:37.406Z,48.77
2022-12-03T23:34:05.922Z,52.87
2022-12-03T23:36:34.466Z,52.47
2022-12-03T23:39:03.391Z,49.17
2022-12-03T23:41:31.864Z,49.00
2022-12-03T23:44:00.254Z,52.20
2022-12-03T23:46:30.387Z,52.63
2022-12-03T23:48:59.824Z,49.17
2022-12-03T23:51:28.632Z,53.30
2022-12-03T23:53:57.260Z,54.47
2022-12-03T23:56:26.414Z,57.97
2022-12-03T23:58:55.162Z,53.90
